Belgrade, Nebraska
Current Conditions -  °F | °C
As of 9:15 AM on Monday 24 Nov 2014 (Local Time) from KBVN Reporting Station
Overcast Overcast  
Wind Chill: 13°   Ceiling: 2200
Heat Index: 27°   Visibility: 10mi
Dew Point: 17°   Wind: 22mph
Humidity: 65%   Direction: 320°NW
Pressure: 29.74"   Gusts: 33mph
Location:  41.47°N, 98.07°W
Report Text: KBVN 241515Z AUTO 32019G29KT 10SM OVC022 M03/M08 A2974 RMK AO2 T10281085
Loading
Personal Weather Stations






























Interactive Weather Map New forecast layout! Learn more

10-Day Weather Forecast

Advertisements
Track Severe Weather on mobile